Hamburg Finkenwerder Airport

About
Name: Hamburg Finkenwerder Airport
Identifier:  XFW/EDHI
Serves:  Airbus ' Hamburg facility
Public/Private:  Private
Local Time:  19. Sep 18:38 CEST
Description: Hamburg Finkenwerder Airport is a private airport in the Finkenwerder quarter of southwest Hamburg, Germany. It is an integral part of the Hamburg Finkenwerder plant of Airbus and is exclusively used by them for corporate, freight, test and delivery flights, including the Airbus A380.
Source: Wikipedia
Location
Hamburg
  Germany

Runways
Identifier Length (m/ft) Surface
05/23 10,443/10,443 Concrete / Asphalt
Statistics
Flights per Day:
0 flights
Distance: 1,264km (785mi)
Flights delayed:
50% (0 flights per day delayed)
Delay Average: 21 minutes
Current Weather
 15 C (Humidity: 58%)
  13kt (24km/h / 14mph) from 300°
  Few clouds at 3,600 feet (1,097 meter)
  9km (6 mi.)
 METAR EDHI 191550Z 30013KT 270V330 9999 FEW036 15/07 Q1028

Current Flights

Arrivals
Number Arrival From Airline
Landed 5K522 08:25  Toulouse  Hi Fly

Current Delays

Departures
N/A
Arrivals
N/A

Destinations

Top Destinations
Airport Flights
per week
Seats
per week
  Toulouse (TLS) 2 - 0 0

Airlines & Planes

Top Airlines
Airline Flights
per Day
Seats
per Day
  Hi Fly 0 -
Top Plane Types
Model Flights Seats
Airbus A319 0.3/day - 0